createdAt,value
2022-07-26T00:00:37.845Z,80.60
2022-07-26T00:03:23.331Z,80.50
2022-07-26T00:06:09.263Z,80.80
2022-07-26T00:08:54.793Z,81.00
2022-07-26T00:11:40.584Z,81.00
2022-07-26T00:14:25.965Z,81.10
2022-07-26T00:17:11.508Z,81.20
2022-07-26T00:19:56.819Z,81.20
2022-07-26T00:22:42.605Z,81.20
2022-07-26T00:25:28.975Z,81.30
2022-07-26T00:28:14.708Z,81.40
2022-07-26T00:31:00.701Z,81.50
2022-07-26T00:33:46.750Z,81.60
2022-07-26T00:36:32.355Z,81.60
2022-07-26T00:39:21.498Z,81.60
2022-07-26T00:42:07.074Z,81.80
2022-07-26T00:44:52.651Z,82.00
2022-07-26T00:47:38.333Z,82.10
2022-07-26T00:50:23.928Z,82.20
2022-07-26T00:53:09.264Z,82.30
2022-07-26T00:55:55.022Z,82.60
2022-07-26T00:58:41.325Z,82.80
2022-07-26T01:01:30.404Z,82.70
2022-07-26T01:04:16.408Z,82.90
2022-07-26T01:07:03.382Z,83.20
2022-07-26T01:10:03.212Z,83.30
2022-07-26T01:12:48.817Z,83.20
2022-07-26T01:15:34.142Z,83.40
2022-07-26T01:18:19.927Z,83.50
2022-07-26T01:21:13.739Z,83.80
2022-07-26T01:23:59.920Z,83.80
2022-07-26T01:26:45.729Z,84.00
2022-07-26T01:29:35.910Z,84.10
2022-07-26T01:32:22.109Z,84.30
2022-07-26T01:35:07.917Z,84.40
2022-07-26T01:37:53.638Z,84.50
2022-07-26T01:40:38.922Z,84.60
2022-07-26T01:43:24.465Z,84.60
2022-07-26T01:46:10.481Z,85.60
2022-07-26T01:48:56.360Z,84.70
2022-07-26T01:51:42.254Z,84.60
2022-07-26T01:54:28.044Z,84.60
2022-07-26T01:57:13.493Z,84.60
2022-07-26T01:59:58.967Z,84.70
2022-07-26T02:02:44.521Z,84.90
2022-07-26T02:05:31.805Z,84.90
2022-07-26T02:08:17.431Z,84.70
2022-07-26T02:11:05.414Z,84.90
2022-07-26T02:13:53.185Z,85.00
2022-07-26T02:16:39.177Z,84.80
2022-07-26T02:19:24.763Z,84.70
2022-07-26T02:22:11.080Z,84.90
2022-07-26T02:24:59.500Z,84.80
2022-07-26T02:27:47.241Z,85.30
2022-07-26T02:30:33.785Z,85.30
2022-07-26T02:33:19.974Z,84.30
2022-07-26T02:36:05.666Z,84.40
2022-07-26T02:38:54.490Z,84.30
2022-07-26T02:41:40.462Z,84.20
2022-07-26T02:44:26.812Z,84.00
2022-07-26T02:47:12.782Z,84.10
2022-07-26T02:49:58.818Z,84.10
2022-07-26T02:52:44.497Z,84.00
2022-07-26T02:55:31.076Z,84.00
2022-07-26T02:58:16.650Z,84.80
2022-07-26T03:01:02.418Z,83.60
2022-07-26T03:03:50.779Z,83.90
2022-07-26T03:06:36.982Z,84.10
2022-07-26T03:09:22.183Z,83.80
2022-07-26T03:12:08.154Z,84.10
2022-07-26T03:14:53.800Z,84.10
2022-07-26T03:17:39.311Z,83.90
2022-07-26T03:20:25.005Z,83.50
2022-07-26T03:23:10.693Z,83.60
2022-07-26T03:26:02.031Z,84.20
2022-07-26T03:28:47.770Z,84.40
2022-07-26T03:31:33.176Z,85.00
2022-07-26T03:34:19.068Z,85.20
2022-07-26T03:37:04.819Z,85.60
2022-07-26T03:39:50.917Z,85.80
2022-07-26T03:42:36.881Z,86.30
2022-07-26T03:45:22.350Z,86.20
2022-07-26T03:48:07.983Z,86.60
2022-07-26T03:50:53.385Z,86.70
2022-07-26T03:53:38.631Z,86.80
2022-07-26T03:56:31.929Z,86.80
2022-07-26T03:59:18.810Z,87.10
2022-07-26T04:02:04.590Z,87.20
2022-07-26T04:04:50.314Z,87.10
2022-07-26T04:07:42.633Z,88.20
2022-07-26T04:10:28.166Z,87.80
2022-07-26T04:13:13.538Z,88.00
2022-07-26T04:15:59.146Z,87.80
2022-07-26T04:18:44.682Z,88.00
2022-07-26T04:21:30.360Z,88.30
2022-07-26T04:24:15.927Z,88.40
2022-07-26T04:27:01.581Z,88.40
2022-07-26T04:29:46.883Z,88.20
2022-07-26T04:32:32.610Z,88.20
2022-07-26T04:35:18.689Z,88.50
2022-07-26T04:38:04.822Z,88.60
2022-07-26T04:40:51.742Z,88.80
2022-07-26T04:43:37.597Z,88.90
2022-07-26T04:46:25.135Z,88.60
2022-07-26T04:49:11.352Z,88.80
2022-07-26T04:51:59.399Z,88.90
2022-07-26T04:54:45.724Z,88.70
2022-07-26T04:57:31.450Z,88.90
2022-07-26T05:00:25.547Z,89.10
2022-07-26T05:03:11.434Z,89.00
2022-07-26T05:05:57.173Z,88.80
2022-07-26T05:08:43.379Z,88.70
2022-07-26T05:11:28.881Z,88.90
2022-07-26T05:14:14.629Z,88.50
2022-07-26T05:17:00.141Z,88.20
2022-07-26T05:20:02.760Z,88.10
2022-07-26T05:22:49.338Z,88.00
2022-07-26T05:25:35.240Z,87.90
2022-07-26T05:28:20.971Z,87.50
2022-07-26T05:31:06.772Z,88.00
2022-07-26T05:33:52.053Z,87.80
2022-07-26T05:36:37.724Z,87.70
2022-07-26T05:39:24.437Z,87.30
2022-07-26T05:42:09.688Z,88.00
2022-07-26T05:44:56.002Z,87.30
2022-07-26T05:47:41.316Z,87.50
2022-07-26T05:50:26.995Z,87.80
2022-07-26T05:53:12.561Z,87.70
2022-07-26T05:55:58.032Z,87.50
2022-07-26T05:58:46.184Z,87.60
2022-07-26T06:01:32.884Z,87.10
2022-07-26T06:04:18.845Z,86.80
2022-07-26T06:07:04.465Z,86.90
2022-07-26T06:09:49.728Z,85.80
2022-07-26T06:12:35.381Z,84.70
2022-07-26T06:15:24.132Z,84.90
2022-07-26T06:18:10.268Z,85.50
2022-07-26T06:20:56.068Z,85.80
2022-07-26T06:23:47.948Z,86.50
2022-07-26T06:26:34.074Z,86.80
2022-07-26T06:29:20.208Z,87.00
2022-07-26T06:32:06.105Z,87.40
2022-07-26T06:34:53.412Z,87.40
2022-07-26T06:37:40.411Z,87.30
2022-07-26T06:40:26.614Z,87.80
2022-07-26T06:43:12.250Z,88.00
2022-07-26T06:45:58.070Z,87.30
2022-07-26T06:48:47.358Z,86.20
2022-07-26T06:51:38.380Z,86.10
2022-07-26T06:54:24.493Z,86.00
2022-07-26T06:57:10.033Z,86.00
2022-07-26T06:59:55.754Z,85.70
2022-07-26T07:02:41.225Z,85.60
2022-07-26T07:05:26.523Z,84.60
2022-07-26T07:08:16.541Z,84.50
2022-07-26T07:11:03.488Z,84.30
2022-07-26T07:13:50.943Z,84.50
2022-07-26T07:16:36.640Z,83.80
2022-07-26T07:19:22.216Z,82.70
2022-07-26T07:22:11.834Z,82.80
2022-07-26T07:24:58.023Z,82.60
2022-07-26T07:27:43.190Z,82.60
2022-07-26T07:30:29.443Z,82.90
2022-07-26T07:33:22.515Z,82.70
2022-07-26T07:36:08.943Z,82.80
2022-07-26T07:38:54.925Z,82.80
2022-07-26T07:41:43.397Z,82.60
2022-07-26T07:44:29.024Z,81.70
2022-07-26T07:47:15.019Z,80.50
2022-07-26T07:50:00.755Z,80.00
2022-07-26T07:52:46.384Z,79.30
2022-07-26T07:55:41.070Z,79.20
2022-07-26T07:58:29.919Z,78.80
2022-07-26T08:01:15.382Z,78.60
2022-07-26T08:04:01.040Z,77.60
2022-07-26T08:06:50.289Z,76.80
2022-07-26T08:09:37.644Z,76.20
2022-07-26T08:12:31.389Z,74.90
2022-07-26T08:15:16.693Z,74.10
2022-07-26T08:18:05.322Z,74.50
2022-07-26T08:20:54.533Z,73.30
2022-07-26T08:23:40.427Z,72.30
2022-07-26T08:26:25.881Z,72.20
2022-07-26T08:29:14.595Z,71.80
2022-07-26T08:32:00.794Z,71.40
2022-07-26T08:34:46.229Z,71.00
2022-07-26T08:37:31.797Z,70.90
2022-07-26T08:40:17.676Z,69.70
2022-07-26T08:43:03.688Z,67.90
2022-07-26T08:45:50.243Z,67.30
2022-07-26T08:48:45.106Z,67.10
2022-07-26T08:51:31.645Z,68.40
2022-07-26T08:54:17.147Z,68.30
2022-07-26T08:57:03.334Z,67.30
2022-07-26T09:00:31.741Z,66.90
2022-07-26T09:03:26.818Z,66.70
2022-07-26T09:06:17.669Z,66.00
2022-07-26T09:09:12.628Z,65.50
2022-07-26T09:12:02.042Z,65.50
2022-07-26T09:14:48.001Z,65.30
2022-07-26T09:17:45.120Z,64.50
2022-07-26T09:20:32.277Z,63.30
2022-07-26T09:23:17.964Z,64.70
2022-07-26T09:26:07.363Z,65.10
2022-07-26T09:29:07.131Z,64.10
2022-07-26T09:31:52.976Z,64.50
2022-07-26T09:34:48.083Z,64.00
2022-07-26T09:37:39.998Z,63.50
2022-07-26T09:40:32.668Z,62.20
2022-07-26T09:43:24.185Z,61.10
2022-07-26T09:46:11.103Z,59.90
2022-07-26T09:49:13.678Z,59.90
2022-07-26T09:51:59.055Z,61.20
2022-07-26T09:54:46.871Z,61.70
2022-07-26T09:57:35.164Z,62.50
2022-07-26T10:00:20.878Z,62.40
2022-07-26T10:03:07.420Z,62.00
2022-07-26T10:05:53.270Z,61.60
2022-07-26T10:08:38.697Z,61.60
2022-07-26T10:11:25.982Z,61.50
2022-07-26T10:14:32.951Z,61.00
2022-07-26T10:17:31.094Z,60.20
2022-07-26T10:20:42.319Z,59.80
2022-07-26T10:23:47.518Z,59.80
2022-07-26T10:26:33.120Z,59.20
2022-07-26T10:29:18.725Z,59.40
2022-07-26T10:32:06.796Z,59.00
2022-07-26T10:34:52.220Z,57.70
2022-07-26T10:37:37.748Z,57.10
2022-07-26T10:40:32.679Z,57.10
2022-07-26T10:46:28.044Z,57.80
2022-07-26T10:49:18.987Z,58.00
2022-07-26T10:52:17.882Z,58.50
2022-07-26T10:55:03.596Z,58.60
2022-07-26T10:57:50.628Z,57.60
2022-07-26T11:00:36.331Z,56.80
2022-07-26T11:03:21.949Z,56.70
2022-07-26T11:06:14.641Z,55.90
2022-07-26T11:09:13.415Z,56.00
2022-07-26T11:12:15.861Z,56.00
2022-07-26T11:15:15.381Z,55.60
2022-07-26T11:18:33.235Z,55.40
2022-07-26T11:21:19.780Z,55.30
2022-07-26T11:24:06.559Z,55.00
2022-07-26T11:26:52.597Z,55.10
2022-07-26T11:29:41.207Z,55.00
2022-07-26T11:32:30.296Z,54.40
2022-07-26T11:35:16.625Z,54.10
2022-07-26T11:38:11.901Z,53.50
2022-07-26T11:40:58.200Z,53.40
2022-07-26T11:43:44.809Z,52.20
2022-07-26T11:46:43.155Z,51.50
2022-07-26T11:52:42.779Z,50.90
2022-07-26T11:55:30.457Z,51.50
2022-07-26T11:58:16.148Z,51.30
2022-07-26T12:01:02.027Z,51.20
2022-07-26T12:03:49.969Z,51.00
2022-07-26T12:06:38.837Z,50.80
2022-07-26T12:09:33.696Z,49.60
2022-07-26T12:12:23.688Z,49.60
2022-07-26T12:15:09.169Z,48.70
2022-07-26T12:18:00.402Z,47.50
2022-07-26T12:21:00.651Z,46.80
2022-07-26T12:23:50.924Z,47.20
2022-07-26T12:26:36.692Z,47.50
2022-07-26T12:29:30.015Z,47.60
2022-07-26T12:32:18.503Z,48.00
2022-07-26T12:35:33.636Z,48.10
2022-07-26T12:38:38.470Z,48.30
2022-07-26T12:41:40.114Z,48.30
2022-07-26T12:44:26.046Z,48.50
2022-07-26T12:47:11.676Z,48.80
2022-07-26T12:49:59.138Z,49.40
2022-07-26T12:52:45.583Z,49.70
2022-07-26T12:55:31.762Z,49.80
2022-07-26T12:58:17.663Z,50.00
2022-07-26T13:01:03.064Z,50.20
2022-07-26T13:03:48.960Z,50.90
2022-07-26T13:06:34.457Z,50.00
2022-07-26T13:09:20.003Z,49.10
2022-07-26T13:12:06.530Z,49.00
2022-07-26T13:14:52.232Z,49.20
2022-07-26T13:17:38.054Z,48.90
2022-07-26T13:20:24.798Z,49.30
2022-07-26T13:23:13.729Z,48.80
2022-07-26T13:26:01.483Z,48.80
2022-07-26T13:28:49.880Z,49.30
2022-07-26T13:31:36.606Z,49.10
2022-07-26T13:34:23.322Z,49.10
2022-07-26T13:37:11.838Z,49.80
2022-07-26T13:39:57.818Z,49.90
2022-07-26T13:42:43.425Z,49.90
2022-07-26T13:45:29.635Z,50.10
2022-07-26T13:48:17.911Z,49.40
2022-07-26T13:51:03.652Z,49.60
2022-07-26T13:53:54.780Z,49.60
2022-07-26T13:56:41.287Z,49.80
2022-07-26T13:59:27.621Z,50.30
2022-07-26T14:02:13.222Z,50.30
2022-07-26T14:04:58.934Z,50.30
2022-07-26T14:07:44.484Z,50.10
2022-07-26T14:10:29.825Z,50.40
2022-07-26T14:13:15.378Z,51.10
2022-07-26T14:16:00.667Z,50.30
2022-07-26T14:18:46.505Z,50.20
2022-07-26T14:21:38.690Z,50.80
2022-07-26T14:24:33.223Z,50.90
2022-07-26T14:27:19.114Z,50.30
2022-07-26T14:30:07.259Z,49.60
2022-07-26T14:32:53.665Z,49.20
2022-07-26T14:35:39.132Z,49.20
2022-07-26T14:38:29.784Z,48.60
2022-07-26T14:41:15.727Z,48.30
2022-07-26T14:44:03.981Z,47.90
2022-07-26T14:46:49.483Z,47.10
2022-07-26T14:49:35.623Z,47.00
2022-07-26T14:58:27.327Z,46.30
2022-07-26T15:01:13.063Z,46.40
2022-07-26T15:03:59.189Z,46.50
2022-07-26T15:06:44.567Z,46.50
2022-07-26T15:09:30.053Z,46.80
2022-07-26T15:12:15.628Z,47.40
2022-07-26T15:15:01.337Z,46.60
2022-07-26T15:17:46.815Z,46.90
2022-07-26T15:20:32.437Z,47.10
2022-07-26T15:23:18.121Z,46.60
2022-07-26T15:26:03.480Z,46.10
2022-07-26T15:28:49.218Z,46.10
2022-07-26T15:31:38.116Z,45.40
2022-07-26T15:34:24.209Z,46.10
2022-07-26T15:37:09.873Z,46.10
2022-07-26T15:39:55.441Z,45.50
2022-07-26T15:42:45.603Z,45.70
2022-07-26T15:45:32.765Z,46.10
2022-07-26T15:48:22.523Z,46.10
2022-07-26T15:51:08.376Z,45.70
2022-07-26T15:53:54.203Z,45.20
2022-07-26T15:56:39.644Z,44.90
2022-07-26T15:59:25.318Z,45.30
2022-07-26T16:02:10.635Z,45.60
2022-07-26T16:04:56.512Z,46.70
2022-07-26T16:07:43.301Z,46.70
2022-07-26T16:10:31.654Z,47.10
2022-07-26T16:13:17.062Z,47.00
2022-07-26T16:16:02.383Z,47.60
2022-07-26T16:18:47.994Z,47.90
2022-07-26T16:21:33.989Z,48.10
2022-07-26T16:24:19.321Z,48.30
2022-07-26T16:27:06.032Z,48.50
2022-07-26T16:30:02.015Z,48.70
2022-07-26T16:32:48.260Z,48.80
2022-07-26T16:35:33.914Z,49.90
2022-07-26T16:38:22.571Z,49.30
2022-07-26T16:41:18.589Z,49.20
2022-07-26T16:44:05.658Z,49.40
2022-07-26T16:46:51.716Z,49.70
2022-07-26T16:49:37.281Z,50.30
2022-07-26T16:52:24.137Z,50.60
2022-07-26T16:55:11.208Z,51.20
2022-07-26T16:58:10.423Z,51.50
2022-07-26T17:00:55.953Z,51.90
2022-07-26T17:03:41.763Z,52.50
2022-07-26T17:06:27.192Z,52.70
2022-07-26T17:09:15.141Z,53.20
2022-07-26T17:12:06.250Z,53.50
2022-07-26T17:14:53.752Z,53.90
2022-07-26T17:17:39.572Z,54.20
2022-07-26T17:20:25.260Z,54.70
2022-07-26T17:23:10.916Z,54.50
2022-07-26T17:25:56.301Z,54.70
2022-07-26T17:28:41.883Z,54.90
2022-07-26T17:31:29.986Z,54.90
2022-07-26T17:34:16.292Z,54.80
2022-07-26T17:37:03.159Z,55.30
2022-07-26T17:39:53.966Z,54.90
2022-07-26T17:42:40.066Z,55.10
2022-07-26T17:45:25.626Z,55.50
2022-07-26T17:48:11.394Z,55.40
2022-07-26T17:50:56.676Z,55.60
2022-07-26T17:53:42.877Z,56.00
2022-07-26T17:56:28.539Z,55.90
2022-07-26T17:59:14.640Z,55.70
2022-07-26T18:02:00.251Z,55.80
2022-07-26T18:04:46.631Z,56.10
2022-07-26T18:07:32.097Z,56.20
2022-07-26T18:10:17.620Z,56.20
2022-07-26T18:13:06.340Z,56.40
2022-07-26T18:15:53.164Z,56.50
2022-07-26T18:18:38.855Z,56.80
2022-07-26T18:21:24.573Z,56.80
2022-07-26T18:24:17.844Z,57.10
2022-07-26T18:27:03.293Z,57.50
2022-07-26T18:29:52.058Z,57.70
2022-07-26T18:32:38.691Z,58.10
2022-07-26T18:35:24.388Z,58.40
2022-07-26T18:38:09.995Z,58.70
2022-07-26T18:40:55.856Z,58.90
2022-07-26T18:43:41.536Z,59.30
2022-07-26T18:46:26.984Z,59.50
2022-07-26T18:49:19.913Z,59.90
2022-07-26T18:52:08.543Z,60.10
2022-07-26T18:54:54.607Z,60.30
2022-07-26T18:57:42.093Z,60.40
2022-07-26T19:00:30.007Z,61.00
2022-07-26T19:03:16.728Z,61.40
2022-07-26T19:06:04.716Z,61.50
2022-07-26T19:08:50.137Z,61.90
2022-07-26T19:11:37.666Z,62.30
2022-07-26T19:14:23.554Z,62.40
2022-07-26T19:17:11.800Z,62.70
2022-07-26T19:20:02.803Z,63.30
2022-07-26T19:22:50.857Z,63.70
2022-07-26T19:25:37.502Z,63.80
2022-07-26T19:28:23.861Z,64.10
2022-07-26T19:31:09.637Z,64.10
2022-07-26T19:33:58.108Z,64.40
2022-07-26T19:36:46.355Z,64.80
2022-07-26T19:39:31.807Z,64.90
2022-07-26T19:42:18.525Z,65.40
2022-07-26T19:45:04.330Z,65.50
2022-07-26T19:47:49.873Z,65.70
2022-07-26T19:50:35.570Z,65.90
2022-07-26T19:53:21.200Z,66.40
2022-07-26T19:56:07.855Z,66.80
2022-07-26T19:58:55.785Z,66.80
2022-07-26T20:01:41.377Z,67.10
2022-07-26T20:04:26.837Z,67.30
2022-07-26T20:07:16.074Z,67.40
2022-07-26T20:10:01.977Z,67.40
2022-07-26T20:12:47.529Z,67.30
2022-07-26T20:15:33.336Z,67.30
2022-07-26T20:18:22.023Z,67.30
2022-07-26T20:21:07.890Z,67.20
2022-07-26T20:23:53.540Z,67.20
2022-07-26T20:26:39.169Z,67.00
2022-07-26T20:29:33.363Z,67.00
2022-07-26T20:32:19.502Z,66.90
2022-07-26T20:35:05.290Z,67.00
2022-07-26T20:37:50.648Z,67.00
2022-07-26T20:40:36.569Z,67.00
2022-07-26T20:43:23.952Z,67.00
2022-07-26T20:46:12.150Z,67.10
2022-07-26T20:48:58.152Z,67.30
2022-07-26T20:51:45.409Z,67.20
2022-07-26T20:54:32.326Z,67.10
2022-07-26T20:57:22.380Z,67.50
2022-07-26T21:00:10.885Z,67.60
2022-07-26T21:02:59.184Z,67.70
2022-07-26T21:05:47.068Z,67.60
2022-07-26T21:08:32.948Z,67.60
2022-07-26T21:11:18.960Z,67.70
2022-07-26T21:14:04.300Z,67.80
2022-07-26T21:16:51.822Z,67.90
2022-07-26T21:19:37.264Z,68.00
2022-07-26T21:22:25.478Z,68.10
2022-07-26T21:25:11.105Z,68.30
2022-07-26T21:27:56.674Z,68.40
2022-07-26T21:30:42.595Z,68.60
2022-07-26T21:33:28.166Z,68.50
2022-07-26T21:36:14.598Z,68.80
2022-07-26T21:39:00.009Z,68.90
2022-07-26T21:41:47.236Z,69.20
2022-07-26T21:44:32.678Z,69.30
2022-07-26T21:47:18.933Z,69.60
2022-07-26T21:50:05.116Z,69.90
2022-07-26T21:52:50.793Z,70.00
2022-07-26T21:55:36.160Z,70.00
2022-07-26T21:58:23.474Z,70.00
2022-07-26T22:01:12.770Z,70.20
2022-07-26T22:03:58.385Z,70.40
2022-07-26T22:06:44.458Z,71.40
2022-07-26T22:09:30.263Z,70.70
2022-07-26T22:12:15.830Z,70.80
2022-07-26T22:15:01.855Z,71.00
2022-07-26T22:17:47.307Z,71.00
2022-07-26T22:20:34.848Z,71.20
2022-07-26T22:23:23.386Z,71.20
2022-07-26T22:26:09.119Z,72.40
2022-07-26T22:28:54.344Z,71.70
2022-07-26T22:31:40.196Z,71.90
2022-07-26T22:34:25.653Z,72.00
2022-07-26T22:37:11.232Z,72.30
2022-07-26T22:39:56.825Z,72.50
2022-07-26T22:42:44.733Z,72.60
2022-07-26T22:45:30.956Z,72.70
2022-07-26T22:48:16.793Z,72.80
2022-07-26T22:51:02.066Z,72.90
2022-07-26T22:53:47.647Z,73.20
2022-07-26T22:56:33.324Z,73.30
2022-07-26T22:59:18.561Z,73.20
2022-07-26T23:02:04.747Z,73.40
2022-07-26T23:04:50.003Z,73.80
2022-07-26T23:07:36.212Z,74.00
2022-07-26T23:10:21.797Z,74.30
2022-07-26T23:13:07.491Z,74.40
2022-07-26T23:15:58.124Z,74.50
2022-07-26T23:18:46.233Z,75.70
2022-07-26T23:21:45.519Z,75.30
2022-07-26T23:24:31.743Z,75.40
2022-07-26T23:27:20.160Z,75.40
2022-07-26T23:30:05.937Z,76.30
2022-07-26T23:33:02.863Z,75.50
2022-07-26T23:35:48.392Z,75.70
2022-07-26T23:38:33.865Z,75.90
2022-07-26T23:41:19.496Z,75.90
2022-07-26T23:44:05.276Z,76.00
2022-07-26T23:46:50.760Z,76.40
2022-07-26T23:49:36.524Z,76.20
2022-07-26T23:52:21.978Z,76.40
2022-07-26T23:55:08.163Z,76.70
2022-07-26T23:57:54.083Z,76.70
